sim
Sign-in with your pilot id or email,
or register
Callsign
Passwort

Schedule Details

Flight Number: OEC538
Departure: Stuttgart Airport (EDDS) at Time
Arrival: Munich Airport (EDDM) at Time

Weather Information
Getting current METAR information for EDDS 282020Z 24005KT 210V270 9999 FEW042 12/07 Q1014
Getting current METAR information for EDDM 282020Z VRB02KT CAVOK 09/07 Q1015 NOSIG

Schedule Frequency

Route Map